Time;durP1;ratioP1;P1;durP2;ratioP2;P2;SDS_P1;SDS_P2;PMS_P1;PMS_P2;Temp;Humidity;BMP_temperature;BMP_pressure;BME280_temperature;BME280_humidity;BME280_pressure;Samples;Min_cycle;Max_cycle;Signal;HPM_P1;HPM_P2
2022/11/29 00:01:14;;;;;;;410.75;28.00;;;7.80;99.90;;;;;;6187621;23;20134;-84
2022/11/29 00:03:40;;;;;;;245.23;25.73;;;7.80;99.90;;;;;;6212063;23;20019;-81
2022/11/29 00:06:08;;;;;;;312.15;26.40;;;7.90;99.90;;;;;;6212136;23;20323;-82
2022/11/29 00:08:35;;;;;;;300.10;25.90;;;7.70;99.90;;;;;;6185659;23;20020;-82
2022/11/29 00:11:10;;;;;;;432.85;27.55;;;7.70;99.90;;;;;;6187288;23;20190;-81
2022/11/29 00:13:36;;;;;;;246.07;24.65;;;8.00;99.90;;;;;;6211993;23;20048;-81
2022/11/29 00:16:14;;;;;;;193.38;23.23;;;7.70;99.90;;;;;;6212177;23;20024;-85
2022/11/29 00:18:40;;;;;;;370.98;26.02;;;7.80;99.90;;;;;;6212208;23;20021;-82
2022/11/29 00:21:07;;;;;;;290.08;24.95;;;7.70;99.90;;;;;;6213019;23;20055;-82
2022/11/29 00:23:35;;;;;;;212.48;25.05;;;7.80;99.90;;;;;;6187538;23;20012;-83
2022/11/29 00:26:07;;;;;;;182.00;23.50;;;7.70;99.90;;;;;;6215176;23;20023;-84
2022/11/29 00:29:11;;;;;;;239.05;24.88;;;7.80;99.90;;;;;;6211839;23;20115;-85
2022/11/29 00:31:37;;;;;;;268.90;25.73;;;7.60;99.90;;;;;;6187149;23;20047;-81
2022/11/29 00:34:05;;;;;;;333.55;26.38;;;7.90;99.90;;;;;;6213978;23;20171;-81
2022/11/29 00:36:33;;;;;;;387.02;28.27;;;7.70;99.90;;;;;;6187194;23;20448;-84
2022/11/29 00:38:59;;;;;;;276.35;25.63;;;7.90;99.90;;;;;;6186550;23;20071;-86
2022/11/29 00:41:25;;;;;;;448.73;29.65;;;7.90;99.90;;;;;;6187487;23;20013;-83
2022/11/29 00:43:51;;;;;;;332.55;30.75;;;7.80;99.90;;;;;;6186867;23;20444;-82
2022/11/29 00:46:17;;;;;;;389.02;29.13;;;7.90;99.90;;;;;;6212406;23;20051;-79
2022/11/29 00:48:42;;;;;;;323.42;27.67;;;7.70;99.90;;;;;;6187283;23;20021;-83
2022/11/29 00:51:08;;;;;;;295.38;26.23;;;7.60;99.90;;;;;;6212930;23;20044;-81
2022/11/29 00:53:35;;;;;;;314.42;26.88;;;7.70;99.90;;;;;;6187040;23;20016;-83
2022/11/29 00:56:01;;;;;;;263.00;24.92;;;7.70;99.90;;;;;;6188062;23;20103;-82
2022/11/29 00:58:27;;;;;;;388.83;29.23;;;7.60;99.90;;;;;;6216252;23;20067;-82
2022/11/29 01:04:35;;;;;;;464.45;30.70;;;7.70;99.90;;;;;;6217038;23;20079;-85
2022/11/29 01:07:01;;;;;;;286.75;26.90;;;7.80;99.90;;;;;;6220713;23;20024;-80
2022/11/29 01:09:27;;;;;;;310.23;27.48;;;7.80;99.90;;;;;;6219834;23;20028;-82
2022/11/29 01:11:52;;;;;;;274.67;27.15;;;7.70;99.90;;;;;;6213963;23;20785;-84
2022/11/29 01:14:18;;;;;;;245.70;27.27;;;7.90;99.90;;;;;;6214335;23;20017;-82
2022/11/29 01:16:44;;;;;;;281.45;27.45;;;7.60;99.90;;;;;;6213630;23;20043;-82
2022/11/29 01:19:09;;;;;;;386.15;31.15;;;7.70;99.90;;;;;;6187119;23;20034;-82
2022/11/29 01:21:37;;;;;;;431.00;32.33;;;7.60;99.90;;;;;;6215026;23;20296;-81
2022/11/29 01:24:02;;;;;;;295.85;30.90;;;7.80;99.90;;;;;;6212052;23;20422;-84
2022/11/29 01:26:29;;;;;;;391.48;31.63;;;7.70;99.90;;;;;;6212945;23;20047;-83
2022/11/29 01:28:57;;;;;;;249.52;28.05;;;7.70;99.90;;;;;;6188140;23;20040;-84
2022/11/29 01:31:27;;;;;;;271.77;27.88;;;7.60;99.90;;;;;;6220819;23;20016;-87
2022/11/29 01:33:57;;;;;;;203.52;26.67;;;7.70;99.90;;;;;;6192932;23;20021;-82
2022/11/29 01:36:24;;;;;;;261.83;28.45;;;7.90;99.90;;;;;;6218308;23;20099;-82
2022/11/29 01:38:50;;;;;;;265.20;27.67;;;7.80;99.90;;;;;;6216570;23;20024;-82
2022/11/29 01:41:22;;;;;;;230.82;26.77;;;7.60;99.90;;;;;;6216626;23;20015;-81
2022/11/29 01:44:05;;;;;;;264.17;28.90;;;7.80;99.90;;;;;;6216216;23;20012;-82
2022/11/29 01:46:37;;;;;;;180.93;25.77;;;7.60;99.90;;;;;;6192346;23;20017;-82
2022/11/29 01:49:16;;;;;;;141.27;25.73;;;7.80;99.90;;;;;;6192535;23;20027;-82
2022/11/29 01:51:47;;;;;;;227.02;26.75;;;7.70;99.90;;;;;;6218308;23;20012;-80
2022/11/29 01:54:13;;;;;;;282.02;28.73;;;7.80;99.90;;;;;;6214020;23;20040;-85
2022/11/29 01:56:40;;;;;;;181.45;28.08;;;7.80;99.90;;;;;;6192962;23;20020;-80
2022/11/29 01:59:11;;;;;;;278.65;28.98;;;7.80;99.90;;;;;;6216048;23;20427;-82
2022/11/29 02:01:37;;;;;;;118.95;25.70;;;7.60;99.90;;;;;;6215239;23;20059;-82
2022/11/29 02:04:04;;;;;;;184.02;26.50;;;7.80;99.90;;;;;;6213576;23;20012;-80
2022/11/29 02:06:30;;;;;;;188.25;27.75;;;7.70;99.90;;;;;;6192973;23;20017;-83
2022/11/29 02:08:56;;;;;;;196.50;27.10;;;7.70;99.90;;;;;;6216841;23;20051;-80
2022/11/29 02:11:48;;;;;;;239.52;29.90;;;7.70;99.90;;;;;;6217216;23;20435;-81
2022/11/29 02:14:28;;;;;;;129.43;26.17;;;7.50;99.90;;;;;;6218968;23;20082;-81
2022/11/29 02:17:27;;;;;;;201.98;27.90;;;7.70;99.90;;;;;;6191939;23;20016;-81
2022/11/29 02:20:22;;;;;;;232.93;28.95;;;7.60;99.90;;;;;;6136926;23;20019;-81
2022/11/29 02:23:06;;;;;;;150.85;27.02;;;7.60;99.90;;;;;;6220926;23;20036;-83
2022/11/29 02:26:01;;;;;;;288.92;30.33;;;7.60;99.90;;;;;;6195662;23;20098;-80
2022/11/29 02:29:02;;;;;;;199.60;29.35;;;7.70;99.90;;;;;;6195891;23;20055;-81
2022/11/29 02:31:49;;;;;;;219.02;28.90;;;7.70;99.90;;;;;;6219641;23;20016;-80
2022/11/29 02:34:17;;;;;;;163.73;27.70;;;7.70;99.90;;;;;;6219773;23;20016;-81
2022/11/29 02:37:02;;;;;;;283.17;31.23;;;7.70;99.90;;;;;;6225223;23;20074;-81
2022/11/29 02:39:38;;;;;;;235.20;29.50;;;7.60;99.90;;;;;;6198493;23;20017;-82
2022/11/29 02:42:26;;;;;;;167.15;27.98;;;7.40;99.90;;;;;;6222656;23;20012;-80
2022/11/29 02:45:13;;;;;;;162.05;28.20;;;7.40;99.90;;;;;;6215548;23;20093;-82
2022/11/29 02:48:04;;;;;;;142.95;27.05;;;7.40;99.90;;;;;;6215224;23;20475;-81
2022/11/29 02:50:51;;;;;;;138.48;26.35;;;7.40;99.90;;;;;;6214978;23;20012;-83
2022/11/29 02:53:22;;;;;;;180.65;27.67;;;7.40;99.90;;;;;;6188014;23;20044;-84
2022/11/29 02:56:23;;;;;;;130.07;25.67;;;7.60;99.90;;;;;;6188942;23;20080;-81
2022/11/29 03:02:48;;;;;;;304.50;29.80;;;7.40;99.90;;;;;;6096423;23;20025;-81
2022/11/29 03:05:39;;;;;;;209.40;25.97;;;7.50;99.90;;;;;;6050345;23;20395;-82
2022/11/29 03:08:29;;;;;;;335.70;29.05;;;7.30;99.90;;;;;;6072729;23;20273;-81
2022/11/29 03:11:04;;;;;;;256.50;26.58;;;7.20;99.90;;;;;;6017137;23;20114;-84
2022/11/29 03:14:07;;;;;;;172.48;25.92;;;7.30;99.90;;;;;;6064669;23;20102;-84
2022/11/29 03:16:58;;;;;;;327.90;28.27;;;7.20;99.90;;;;;;6016687;23;20019;-84
2022/11/29 03:19:45;;;;;;;206.13;25.35;;;7.20;99.90;;;;;;6039957;23;20887;-83
2022/11/29 03:22:40;;;;;;;260.70;26.20;;;7.10;99.90;;;;;;6040497;23;20101;-82
2022/11/29 03:25:37;;;;;;;169.73;25.92;;;7.40;99.90;;;;;;6039832;23;20046;-84
2022/11/29 03:28:28;;;;;;;224.95;26.48;;;7.30;99.90;;;;;;6040006;23;20327;-86
2022/11/29 03:31:22;;;;;;;172.00;25.88;;;7.20;99.90;;;;;;6064367;23;20093;-85
2022/11/29 03:34:19;;;;;;;243.05;27.95;;;7.30;99.90;;;;;;6016051;23;20635;-80
2022/11/29 03:36:52;;;;;;;143.05;26.70;;;7.20;99.90;;;;;;6073865;23;20097;-82
2022/11/29 03:39:29;;;;;;;130.40;25.15;;;7.20;99.90;;;;;;6072983;23;20509;-84
2022/11/29 03:42:00;;;;;;;233.98;28.75;;;7.30;99.90;;;;;;6074138;23;20311;-84
2022/11/29 03:44:33;;;;;;;90.72;23.15;;;7.20;99.90;;;;;;6097322;23;20485;-83
2022/11/29 03:47:06;;;;;;;126.03;25.10;;;7.20;99.90;;;;;;6122221;23;20018;-81
2022/11/29 03:49:35;;;;;;;157.27;25.48;;;7.10;99.90;;;;;;6097440;23;20089;-79
2022/11/29 03:52:26;;;;;;;91.20;22.48;;;7.00;99.90;;;;;;6097891;23;20018;-83
2022/11/29 03:55:30;;;;;;;163.85;24.85;;;7.10;99.90;;;;;;6121049;23;20021;-83
2022/11/29 03:58:04;;;;;;;127.40;23.85;;;6.90;99.90;;;;;;6122133;23;20053;-85
2022/11/29 04:00:44;;;;;;;145.95;23.98;;;7.20;99.90;;;;;;6073344;23;20018;-84
2022/11/29 04:03:26;;;;;;;268.88;24.27;;;7.10;99.90;;;;;;6097689;23;20021;-84
2022/11/29 04:06:16;;;;;;;137.73;23.25;;;7.10;99.90;;;;;;6123402;23;20017;-85
2022/11/29 04:09:05;;;;;;;161.68;24.13;;;7.20;99.90;;;;;;6123451;23;20025;-81
2022/11/29 04:11:58;;;;;;;90.25;23.02;;;6.90;99.90;;;;;;6076491;23;20021;-82
2022/11/29 04:14:48;;;;;;;150.90;24.58;;;7.00;99.90;;;;;;6169608;23;20100;-82
2022/11/29 04:17:33;;;;;;;191.73;24.20;;;7.10;99.90;;;;;;6188437;23;20105;-82
2022/11/29 04:20:16;;;;;;;181.97;24.67;;;7.00;99.90;;;;;;6162126;23;20019;-81
2022/11/29 04:23:19;;;;;;;163.25;23.02;;;7.10;99.90;;;;;;6214113;23;20664;-82
2022/11/29 04:26:00;;;;;;;90.35;21.73;;;6.80;99.90;;;;;;6187039;23;20021;-81
2022/11/29 04:28:44;;;;;;;172.50;23.42;;;7.00;99.90;;;;;;6186650;23;20023;-84
2022/11/29 04:31:27;;;;;;;94.93;22.48;;;7.00;99.90;;;;;;6214438;23;20024;-84
2022/11/29 04:34:17;;;;;;;152.25;22.27;;;6.80;99.90;;;;;;6186115;23;20023;-86
2022/11/29 04:36:52;;;;;;;171.02;23.08;;;7.10;99.90;;;;;;6161894;23;20020;-79
2022/11/29 04:39:56;;;;;;;118.57;22.38;;;6.80;99.90;;;;;;6186133;23;20017;-84
2022/11/29 04:43:11;;;;;;;86.93;18.98;;;6.90;99.90;;;;;;6185798;23;20044;-81
2022/11/29 04:46:07;;;;;;;94.00;19.52;;;6.90;99.90;;;;;;6068600;23;20113;-87
2022/11/29 04:48:39;;;;;;;97.97;20.83;;;6.60;99.90;;;;;;6072530;23;20093;-81
2022/11/29 04:51:16;;;;;;;112.50;19.08;;;6.80;99.90;;;;;;6049213;23;20466;-82
2022/11/29 04:53:57;;;;;;;113.13;20.42;;;6.70;99.90;;;;;;6045855;23;20018;-81
2022/11/29 04:56:49;;;;;;;86.38;19.23;;;6.50;99.90;;;;;;6069947;23;20018;-82
2022/11/29 04:59:46;;;;;;;143.95;20.85;;;6.80;99.90;;;;;;6044781;23;20019;-83
2022/11/29 05:02:33;;;;;;;108.00;19.65;;;6.50;99.90;;;;;;6068091;23;20018;-82
2022/11/29 05:05:20;;;;;;;63.67;18.77;;;6.50;99.90;;;;;;6067884;23;20387;-81
2022/11/29 05:07:49;;;;;;;93.72;19.40;;;6.60;99.90;;;;;;6068595;23;20010;-81
2022/11/29 05:10:38;;;;;;;112.28;21.27;;;6.50;99.90;;;;;;6063980;23;20350;-83
2022/11/29 05:13:36;;;;;;;70.13;18.25;;;6.70;99.90;;;;;;6091680;23;20019;-83
2022/11/29 05:16:38;;;;;;;84.75;18.50;;;6.70;99.90;;;;;;6093156;23;20051;-80
2022/11/29 05:19:29;;;;;;;68.03;19.38;;;6.70;99.90;;;;;;6126384;23;20028;-80
2022/11/29 05:22:01;;;;;;;81.10;18.65;;;6.50;99.90;;;;;;6196593;23;20012;-81
2022/11/29 05:24:48;;;;;;;45.15;17.95;;;6.70;99.90;;;;;;6195737;23;20015;-82
2022/11/29 05:27:32;;;;;;;73.13;19.33;;;6.70;99.90;;;;;;6197367;23;20016;-82
2022/11/29 05:30:15;;;;;;;90.88;19.23;;;6.40;99.90;;;;;;6222108;23;20036;-80
2022/11/29 05:33:02;;;;;;;50.40;17.17;;;6.60;99.90;;;;;;6222515;23;20356;-79
2022/11/29 05:35:28;;;;;;;83.43;18.27;;;6.70;99.90;;;;;;6249727;23;20078;-83
2022/11/29 05:38:25;;;;;;;64.63;17.33;;;6.50;99.90;;;;;;6247744;23;20012;-83
2022/11/29 05:41:13;;;;;;;66.47;16.38;;;6.70;99.90;;;;;;6186059;23;20054;-80
2022/11/29 05:43:48;;;;;;;50.03;17.58;;;6.40;99.90;;;;;;6221049;23;20023;-80
2022/11/29 05:50:36;;;;;;;60.88;16.52;;;6.30;99.90;;;;;;6249469;23;20087;-84
2022/11/29 05:53:45;;;;;;;71.80;18.13;;;6.50;99.90;;;;;;6046472;23;20037;-80
2022/11/29 05:56:24;;;;;;;58.58;16.20;;;6.50;99.90;;;;;;6037539;23;20066;-83
2022/11/29 05:59:01;;;;;;;52.30;17.92;;;6.40;99.90;;;;;;6017288;23;20015;-83
2022/11/29 06:01:48;;;;;;;53.28;17.13;;;6.40;99.90;;;;;;6040571;23;20139;-81
2022/11/29 06:04:37;;;;;;;44.97;17.25;;;6.40;99.90;;;;;;6038018;23;20459;-85
2022/11/29 06:07:23;;;;;;;40.72;16.33;;;6.50;99.90;;;;;;5990587;23;20019;-80
2022/11/29 06:10:10;;;;;;;51.08;16.95;;;6.50;99.90;;;;;;6037269;23;20094;-82
2022/11/29 06:12:37;;;;;;;44.10;16.77;;;6.40;99.90;;;;;;5990369;23;20343;-81
2022/11/29 06:15:29;;;;;;;41.33;16.33;;;6.60;99.90;;;;;;6013234;23;20373;-82
2022/11/29 06:18:37;;;;;;;40.47;16.55;;;6.50;99.90;;;;;;6014005;23;20018;-86
2022/11/29 06:21:24;;;;;;;42.17;16.65;;;6.40;99.90;;;;;;6014996;23;20293;-83
2022/11/29 06:23:57;;;;;;;41.92;17.15;;;6.50;99.90;;;;;;6036134;23;20458;-82
2022/11/29 06:26:54;;;;;;;38.55;16.20;;;6.40;99.90;;;;;;6098561;23;20026;-83
2022/11/29 06:29:26;;;;;;;44.83;17.02;;;6.30;99.90;;;;;;6074311;23;20017;-82
2022/11/29 06:32:04;;;;;;;37.53;16.77;;;6.30;99.90;;;;;;6123911;23;20049;-83
2022/11/29 06:34:47;;;;;;;38.72;16.33;;;6.00;99.90;;;;;;6103910;23;20351;-83
2022/11/29 06:37:22;;;;;;;40.35;15.90;;;6.20;99.90;;;;;;6152596;23;20025;-84
2022/11/29 06:39:48;;;;;;;43.28;17.35;;;6.50;99.90;;;;;;6127709;23;20009;-81
2022/11/29 06:42:13;;;;;;;40.42;17.15;;;6.30;99.90;;;;;;6128934;23;20140;-83
2022/11/29 06:44:39;;;;;;;39.65;16.48;;;6.20;99.90;;;;;;6191892;23;20012;-84
2022/11/29 06:47:21;;;;;;;39.05;16.45;;;6.40;99.90;;;;;;6195689;23;20051;-81
2022/11/29 06:49:52;;;;;;;38.33;16.98;;;6.20;99.90;;;;;;6219965;23;20023;-84
2022/11/29 06:52:35;;;;;;;40.17;16.65;;;6.50;99.90;;;;;;6194042;23;20016;-82
2022/11/29 06:55:23;;;;;;;37.85;15.43;;;6.50;99.90;;;;;;6218715;23;20024;-85
2022/11/29 06:58:15;;;;;;;40.72;16.65;;;6.50;99.90;;;;;;6245442;23;20022;-86
2022/11/29 07:00:50;;;;;;;45.28;16.02;;;6.50;99.90;;;;;;6245538;23;20131;-81
2022/11/29 07:03:33;;;;;;;39.67;15.73;;;6.40;99.90;;;;;;6192847;23;20262;-83
2022/11/29 07:06:17;;;;;;;38.70;15.25;;;6.60;99.90;;;;;;6218073;23;20012;-81
2022/11/29 07:08:44;;;;;;;38.45;16.85;;;6.30;99.90;;;;;;6213543;23;20017;-82
2022/11/29 07:11:12;;;;;;;37.63;16.52;;;6.50;99.90;;;;;;6216982;23;20024;-80
2022/11/29 07:13:38;;;;;;;37.25;15.55;;;6.40;99.90;;;;;;6217133;23;20016;-84
2022/11/29 07:19:32;;;;;;;36.65;15.63;;;6.50;99.90;;;;;;6215758;23;20021;-85
2022/11/29 07:22:22;;;;;;;36.78;14.38;;;6.60;99.90;;;;;;6218962;23;20023;-80
2022/11/29 07:24:48;;;;;;;32.53;14.88;;;6.70;99.90;;;;;;6212983;23;20027;-82
2022/11/29 07:27:26;;;;;;;37.90;14.32;;;6.50;99.90;;;;;;6189098;23;20012;-83
2022/11/29 07:30:38;;;;;;;36.35;15.40;;;6.40;99.90;;;;;;6213653;23;20380;-84
2022/11/29 07:33:26;;;;;;;46.47;15.27;;;6.50;99.90;;;;;;6093506;23;20081;-83
2022/11/29 07:35:59;;;;;;;39.40;15.90;;;6.40;99.90;;;;;;6068985;23;20111;-84
2022/11/29 07:38:52;;;;;;;31.17;15.32;;;6.30;99.90;;;;;;6068656;23;20066;-87
2022/11/29 07:41:50;;;;;;;36.97;15.60;;;6.40;99.90;;;;;;6069325;23;20018;-82
2022/11/29 07:44:34;;;;;;;39.90;15.50;;;6.20;99.90;;;;;;6073694;23;20015;-88
2022/11/29 07:47:00;;;;;;;35.67;14.73;;;6.20;99.90;;;;;;6093455;23;20023;-83
2022/11/29 07:49:25;;;;;;;36.97;15.32;;;6.20;99.90;;;;;;6093221;23;20027;-84
2022/11/29 07:51:53;;;;;;;38.70;15.95;;;6.50;99.90;;;;;;6093877;23;20018;-81
2022/11/29 07:54:19;;;;;;;37.33;16.10;;;6.20;99.90;;;;;;6094185;23;20189;-83
2022/11/29 07:56:45;;;;;;;33.42;15.05;;;6.10;99.90;;;;;;6094816;23;20125;-84
2022/11/29 07:59:11;;;;;;;38.67;15.82;;;6.30;99.90;;;;;;6093717;23;20454;-81
2022/11/29 08:01:40;;;;;;;35.88;16.00;;;6.20;99.90;;;;;;6069780;23;20018;-80
2022/11/29 08:04:07;;;;;;;35.78;16.17;;;6.20;99.90;;;;;;6093467;23;20426;-82
2022/11/29 08:06:33;;;;;;;37.97;15.18;;;6.10;99.90;;;;;;6093082;23;20018;-84
2022/11/29 08:09:00;;;;;;;37.80;15.98;;;6.30;99.90;;;;;;6126812;23;20020;-85
2022/11/29 08:11:26;;;;;;;39.33;15.98;;;6.30;99.90;;;;;;6188696;23;20079;-83
2022/11/29 08:13:57;;;;;;;33.58;15.75;;;6.30;99.90;;;;;;6187674;23;20024;-81
2022/11/29 08:16:23;;;;;;;34.65;14.88;;;6.60;99.90;;;;;;6212541;23;20021;-83
2022/11/29 08:18:48;;;;;;;38.92;16.13;;;6.60;99.90;;;;;;6214553;23;20032;-80
2022/11/29 08:21:16;;;;;;;34.00;15.88;;;6.40;99.90;;;;;;6212625;23;20012;-84
2022/11/29 08:23:46;;;;;;;34.40;14.77;;;6.60;99.90;;;;;;6186580;23;20009;-81
2022/11/29 08:26:14;;;;;;;38.78;15.35;;;6.70;99.90;;;;;;6213070;23;20021;-83
2022/11/29 08:28:39;;;;;;;37.95;15.52;;;6.50;99.90;;;;;;6213379;23;20017;-84
2022/11/29 08:31:23;;;;;;;34.70;14.88;;;6.70;99.90;;;;;;6214323;23;20047;-83
2022/11/29 08:33:49;;;;;;;40.45;14.40;;;6.80;99.90;;;;;;6214654;23;20017;-87
2022/11/29 08:36:19;;;;;;;37.60;14.73;;;6.60;99.90;;;;;;6220955;23;20017;-84
2022/11/29 08:38:45;;;;;;;38.05;14.13;;;6.70;99.90;;;;;;6188011;23;20332;-85
2022/11/29 08:41:13;;;;;;;44.60;14.85;;;6.90;99.90;;;;;;6189097;23;20013;-84
2022/11/29 08:43:39;;;;;;;31.15;14.43;;;6.90;99.90;;;;;;6214945;23;20009;-84
2022/11/29 08:46:05;;;;;;;30.00;13.00;;;6.80;99.90;;;;;;6215024;23;20016;-80
2022/11/29 08:48:31;;;;;;;28.88;13.48;;;7.00;99.90;;;;;;6215002;23;20063;-83
2022/11/29 08:50:57;;;;;;;36.45;14.60;;;6.80;99.90;;;;;;6216852;23;20021;-83
2022/11/29 08:53:42;;;;;;;37.22;14.40;;;6.90;99.90;;;;;;6217671;23;20533;-80
2022/11/29 08:56:17;;;;;;;32.40;13.25;;;6.90;99.90;;;;;;6213027;23;20070;-85
2022/11/29 08:58:44;;;;;;;32.03;13.43;;;7.20;99.90;;;;;;6214634;23;20013;-83
2022/11/29 09:01:16;;;;;;;37.55;13.25;;;7.20;99.90;;;;;;6213426;23;20044;-84
2022/11/29 09:03:58;;;;;;;35.63;13.43;;;7.00;99.90;;;;;;6187395;23;20024;-81
2022/11/29 09:06:26;;;;;;;36.05;13.52;;;7.30;99.90;;;;;;6213025;23;20391;-83
2022/11/29 09:08:56;;;;;;;30.98;12.40;;;7.10;99.90;;;;;;6182432;23;20031;-82
2022/11/29 09:11:24;;;;;;;30.08;11.00;;;7.30;99.90;;;;;;6162358;23;20091;-85
2022/11/29 09:13:52;;;;;;;34.08;12.63;;;7.60;99.90;;;;;;6187441;23;20020;-85
2022/11/29 09:16:21;;;;;;;41.40;12.93;;;7.50;99.90;;;;;;6187394;23;20052;-82
2022/11/29 09:18:51;;;;;;;38.88;11.40;;;7.60;99.90;;;;;;6162708;23;20510;-84
2022/11/29 09:21:17;;;;;;;38.55;11.27;;;7.80;99.90;;;;;;6163944;23;20459;-84
2022/11/29 09:23:44;;;;;;;32.22;10.18;;;8.00;99.90;;;;;;6163641;23;20141;-81
2022/11/29 09:26:14;;;;;;;33.72;10.93;;;8.00;99.90;;;;;;6189342;23;20075;-87
2022/11/29 09:28:40;;;;;;;29.77;10.23;;;8.00;99.90;;;;;;6214667;23;20112;-81
2022/11/29 09:31:09;;;;;;;27.63;10.07;;;8.20;99.90;;;;;;6166236;23;20092;-81
2022/11/29 09:33:34;;;;;;;39.20;11.05;;;8.00;99.90;;;;;;6223100;23;20062;-81
2022/11/29 09:36:01;;;;;;;29.45;9.70;;;8.30;99.90;;;;;;6165253;23;20067;-82
2022/11/29 09:38:28;;;;;;;35.25;10.30;;;8.20;99.90;;;;;;6188613;23;20449;-82
2022/11/29 09:40:56;;;;;;;31.35;10.82;;;8.30;99.90;;;;;;6163307;23;20012;-82
2022/11/29 09:43:37;;;;;;;26.13;9.57;;;8.30;99.90;;;;;;6187643;23;20013;-82
2022/11/29 09:46:40;;;;;;;38.08;10.57;;;8.30;99.90;;;;;;6162749;23;20016;-86
2022/11/29 09:49:45;;;;;;;33.35;9.85;;;8.10;99.90;;;;;;6162823;23;20013;-80
2022/11/29 09:52:31;;;;;;;38.38;11.05;;;8.10;99.90;;;;;;6022369;23;20023;-85
2022/11/29 09:55:25;;;;;;;33.35;9.70;;;8.10;99.90;;;;;;6046927;23;20451;-81
2022/11/29 09:57:54;;;;;;;29.83;10.40;;;8.40;99.90;;;;;;6023635;23;20102;-80
2022/11/29 10:00:20;;;;;;;33.17;10.25;;;8.20;99.90;;;;;;6022444;23;20075;-81
2022/11/29 10:02:53;;;;;;;38.72;10.80;;;8.40;99.90;;;;;;6046245;23;20018;-84
2022/11/29 10:05:21;;;;;;;30.42;10.70;;;8.20;99.90;;;;;;6046896;23;20023;-83
2022/11/29 10:08:30;;;;;;;35.53;11.02;;;8.20;99.90;;;;;;6046981;23;20406;-84
2022/11/29 10:11:19;;;;;;;34.97;10.43;;;8.30;99.90;;;;;;5966857;23;20456;-83
2022/11/29 10:13:50;;;;;;;29.20;10.68;;;8.70;99.90;;;;;;6011548;23;20035;-82
2022/11/29 10:20:05;;;;;;;43.72;11.43;;;8.80;99.90;;;;;;6007900;23;20091;-87
2022/11/29 10:22:39;;;;;;;34.00;11.57;;;8.80;99.90;;;;;;6012648;23;20031;-83
2022/11/29 10:25:06;;;;;;;33.43;13.43;;;8.90;99.90;;;;;;6013438;23;20016;-80
2022/11/29 10:27:34;;;;;;;44.22;17.08;;;8.70;99.90;;;;;;6010496;23;20019;-82
2022/11/29 10:30:01;;;;;;;44.13;19.17;;;8.90;99.90;;;;;;6087256;23;20093;-85
2022/11/29 10:32:31;;;;;;;40.38;17.20;;;9.10;99.90;;;;;;6046695;23;20022;-81
2022/11/29 10:34:59;;;;;;;40.05;14.05;;;9.00;99.90;;;;;;6069860;23;20037;-83
2022/11/29 10:37:25;;;;;;;37.92;14.15;;;9.00;99.90;;;;;;6046117;23;20023;-80
2022/11/29 10:39:58;;;;;;;38.42;14.00;;;9.00;99.90;;;;;;6073820;23;20398;-81
2022/11/29 10:45:36;;;;;;;29.58;12.70;;;9.30;99.90;;;;;;6190394;23;20024;-84
2022/11/29 10:48:06;;;;;;;35.35;12.55;;;9.10;99.90;;;;;;6189503;23;20104;-87
2022/11/29 10:50:34;;;;;;;31.95;12.57;;;9.20;99.90;;;;;;6188789;23;20044;-84
2022/11/29 10:53:10;;;;;;;30.13;12.80;;;9.00;99.90;;;;;;6189086;23;20023;-83
2022/11/29 10:55:42;;;;;;;25.38;12.35;;;9.10;99.90;;;;;;6164199;23;20345;-85
2022/11/29 10:58:22;;;;;;;25.40;12.52;;;9.30;99.90;;;;;;6188817;23;20017;-84
2022/11/29 11:00:54;;;;;;;27.55;13.50;;;9.10;99.90;;;;;;6164375;23;20017;-86
2022/11/29 11:03:42;;;;;;;27.25;13.23;;;9.10;99.90;;;;;;6188879;23;20055;-86
2022/11/29 11:06:19;;;;;;;31.15;16.17;;;9.10;99.90;;;;;;6188894;23;20087;-83
2022/11/29 11:09:06;;;;;;;30.90;15.30;;;9.40;99.90;;;;;;6190370;23;20020;-84
2022/11/29 11:11:32;;;;;;;30.20;15.75;;;9.40;99.90;;;;;;6188611;23;20096;-84
2022/11/29 11:14:05;;;;;;;29.05;15.40;;;9.50;99.90;;;;;;6192099;23;20020;-81
2022/11/29 11:16:31;;;;;;;28.27;15.52;;;9.20;99.90;;;;;;6190700;23;20117;-85
2022/11/29 11:19:17;;;;;;;26.52;15.85;;;9.50;99.90;;;;;;6188774;23;20359;-79
2022/11/29 11:21:43;;;;;;;24.13;14.32;;;9.20;99.90;;;;;;6192888;23;20440;-84
2022/11/29 11:24:22;;;;;;;22.98;13.38;;;9.30;99.90;;;;;;6212357;23;20012;-84
2022/11/29 11:26:48;;;;;;;24.80;14.07;;;9.30;99.90;;;;;;6188970;23;20195;-85
2022/11/29 11:29:23;;;;;;;21.85;12.85;;;9.30;99.90;;;;;;6214417;23;20044;-83
2022/11/29 11:32:31;;;;;;;19.63;12.73;;;9.30;99.90;;;;;;6224483;23;20016;-83
2022/11/29 11:34:59;;;;;;;23.27;12.98;;;9.50;99.90;;;;;;6199552;23;20046;-84
2022/11/29 11:37:28;;;;;;;22.25;11.90;;;9.40;99.90;;;;;;6190415;23;20017;-85
2022/11/29 11:39:57;;;;;;;18.40;11.50;;;9.30;99.90;;;;;;6215172;23;20013;-81
2022/11/29 11:42:38;;;;;;;23.05;12.43;;;9.30;99.90;;;;;;6188113;23;20071;-83
2022/11/29 11:45:10;;;;;;;20.30;11.27;;;9.30;99.90;;;;;;6220126;23;20008;-83
2022/11/29 11:47:48;;;;;;;21.25;12.25;;;9.20;99.90;;;;;;6189167;23;20861;-84
2022/11/29 11:50:27;;;;;;;20.58;12.15;;;9.10;99.90;;;;;;6214716;23;20013;-83
2022/11/29 11:53:18;;;;;;;21.88;12.07;;;9.20;99.90;;;;;;6196023;23;20016;-81
2022/11/29 11:55:54;;;;;;;20.60;11.95;;;9.00;99.90;;;;;;6224701;23;20024;-80
2022/11/29 11:58:47;;;;;;;23.55;12.77;;;9.20;99.90;;;;;;6223336;23;20008;-83
2022/11/29 12:04:59;;;;;;;19.75;11.95;;;9.00;99.90;;;;;;6094310;23;20018;-84
2022/11/29 12:07:58;;;;;;;20.38;11.93;;;9.20;99.90;;;;;;6070561;23;20052;-85
2022/11/29 12:10:29;;;;;;;19.08;11.00;;;9.20;99.90;;;;;;5978921;24;20055;-84
2022/11/29 12:12:56;;;;;;;19.30;11.05;;;9.10;99.90;;;;;;5956613;24;20088;-83
2022/11/29 12:15:29;;;;;;;19.50;10.90;;;9.30;99.90;;;;;;5979268;24;20027;-86
2022/11/29 12:18:08;;;;;;;16.42;10.05;;;9.20;99.90;;;;;;5934146;24;20035;-84
2022/11/29 12:21:10;;;;;;;14.20;9.30;;;9.10;99.90;;;;;;5934099;24;20454;-81
2022/11/29 12:23:59;;;;;;;13.45;8.40;;;9.10;99.90;;;;;;5927881;24;20020;-85
2022/11/29 12:26:29;;;;;;;12.57;8.15;;;9.10;99.90;;;;;;5956488;23;20024;-85
2022/11/29 12:28:55;;;;;;;9.57;7.20;;;8.90;99.90;;;;;;5979424;24;20076;-82
2022/11/29 12:31:35;;;;;;;13.80;8.05;;;8.70;99.90;;;;;;5955626;24;20131;-87
2022/11/29 12:34:28;;;;;;;11.32;7.10;;;8.90;99.90;;;;;;5978847;24;20060;-85
2022/11/29 12:37:12;;;;;;;11.30;8.20;;;8.90;99.90;;;;;;5955818;24;20056;-86
2022/11/29 12:39:56;;;;;;;12.48;8.90;;;8.80;99.90;;;;;;6039311;23;20011;-84
2022/11/29 12:42:49;;;;;;;9.32;7.93;;;8.60;99.90;;;;;;6040249;23;20330;-83
2022/11/29 12:45:21;;;;;;;13.27;8.23;;;8.80;99.90;;;;;;6063632;23;20131;-84
2022/11/29 12:48:44;;;;;;;12.07;9.63;;;8.80;99.90;;;;;;6202883;23;20028;-87
2022/11/29 12:51:41;;;;;;;14.05;9.90;;;8.80;99.90;;;;;;6127355;23;20047;-84
2022/11/29 12:54:28;;;;;;;11.70;8.18;;;8.70;99.90;;;;;;6126252;23;20098;-84
2022/11/29 12:57:03;;;;;;;10.15;8.73;;;8.60;99.90;;;;;;6151357;23;20025;-83
2022/11/29 12:59:37;;;;;;;11.38;8.63;;;8.50;99.90;;;;;;6102347;23;20022;-80
2022/11/29 13:02:35;;;;;;;11.10;9.73;;;8.50;99.90;;;;;;6151929;23;20322;-83
2022/11/29 13:05:32;;;;;;;10.55;8.80;;;8.30;99.90;;;;;;6118636;23;20165;-82
2022/11/29 13:08:40;;;;;;;11.05;8.98;;;8.50;99.90;;;;;;6127510;23;20032;-82
2022/11/29 13:11:28;;;;;;;10.20;8.82;;;8.30;99.90;;;;;;6069110;23;20023;-86
2022/11/29 13:14:24;;;;;;;12.85;9.30;;;8.20;99.90;;;;;;6068773;23;20139;-82
2022/11/29 13:16:58;;;;;;;15.93;11.10;;;8.10;99.90;;;;;;6044795;23;20014;-83
2022/11/29 13:19:32;;;;;;;16.17;11.60;;;8.10;99.90;;;;;;6044619;23;20111;-80
2022/11/29 13:22:19;;;;;;;17.60;12.23;;;8.10;99.90;;;;;;6045185;23;20041;-81
2022/11/29 13:24:49;;;;;;;12.65;10.77;;;8.10;99.90;;;;;;6093447;23;20010;-87
2022/11/29 13:27:22;;;;;;;13.63;10.32;;;8.00;99.90;;;;;;6050670;23;20018;-79
2022/11/29 13:29:48;;;;;;;12.48;10.15;;;8.10;99.90;;;;;;6051516;23;20023;-82
2022/11/29 13:32:47;;;;;;;11.63;10.02;;;8.20;99.90;;;;;;6045856;23;20014;-82
2022/11/29 13:35:29;;;;;;;15.77;10.65;;;8.10;99.90;;;;;;6011878;23;20051;-84
2022/11/29 13:38:01;;;;;;;13.57;10.82;;;7.90;99.90;;;;;;6035175;23;20192;-83
2022/11/29 13:40:27;;;;;;;16.20;11.73;;;8.00;99.90;;;;;;6033972;23;20022;-81
2022/11/29 13:43:10;;;;;;;18.25;11.50;;;8.10;99.90;;;;;;6035263;23;20047;-83
2022/11/29 13:45:47;;;;;;;16.42;12.10;;;7.90;99.90;;;;;;6035423;23;20107;-82
2022/11/29 13:48:34;;;;;;;18.58;12.52;;;7.80;99.90;;;;;;6114042;23;20480;-80
2022/11/29 13:51:26;;;;;;;21.15;13.18;;;8.00;99.90;;;;;;6126910;23;20453;-85
2022/11/29 13:53:54;;;;;;;19.00;12.95;;;7.80;99.90;;;;;;6102510;23;20563;-87